West Point, Georgia
Current Conditions -  °F | °C
As of 8:35 AM on Sunday 23 Nov 2014 (Local Time) from KLGC Reporting Station
Light Rain Light Rain  
Wind Chill: 60°   Ceiling: 600
Heat Index: 60°   Visibility: 7mi
Dew Point: 59°   Wind: 6mph
Humidity: 97%   Direction: 110°ESE
Pressure: 29.95"   Gusts: NA
Location:  32.88°N, 85.18°W
Report Text: KLGC 231335Z AUTO 11005KT 7SM -RA OVC006 16/15 A2995 RMK AO2 LTG DSNT SW T01570152
Loading
Personal Weather Stations






























Interactive Weather Map New forecast layout! Learn more

10-Day Weather Forecast

Advertisements
Track Severe Weather on mobile